createdAt,value
2023-06-26T00:01:29.848Z,100966.13
2023-06-26T00:03:56.561Z,100964.97
2023-06-26T00:06:23.156Z,100968.75
2023-06-26T00:08:51.129Z,100961.91
2023-06-26T00:11:17.824Z,100957.56
2023-06-26T00:13:44.371Z,100957.78
2023-06-26T00:16:10.981Z,100964.53
2023-06-26T00:18:37.520Z,100959.53
2023-06-26T00:21:04.090Z,100955.19
2023-06-26T00:23:30.663Z,100958.34
2023-06-26T00:25:58.565Z,100962.13
2023-06-26T00:28:25.110Z,100969.09
2023-06-26T00:30:51.662Z,100962.72
2023-06-26T00:33:18.296Z,100969.94
2023-06-26T00:35:44.819Z,100960.38
2023-06-26T00:38:11.332Z,100951.66
2023-06-26T00:40:38.440Z,100962.16
2023-06-26T00:43:06.635Z,100954.00
2023-06-26T00:45:42.258Z,100947.22
2023-06-26T00:48:12.019Z,100954.97
2023-06-26T00:50:39.007Z,100946.84
2023-06-26T00:53:05.762Z,100948.13
2023-06-26T00:55:32.319Z,100954.28
2023-06-26T00:57:58.874Z,100962.28
2023-06-26T01:00:26.781Z,100953.91
2023-06-26T01:02:53.472Z,100955.91
2023-06-26T01:05:21.354Z,100954.13
2023-06-26T01:07:50.602Z,100956.09
2023-06-26T01:10:20.064Z,100951.84
2023-06-26T01:12:46.918Z,100953.00
2023-06-26T01:15:13.544Z,100958.53
2023-06-26T01:17:42.178Z,100969.19
2023-06-26T01:20:09.735Z,100974.84
2023-06-26T01:22:43.930Z,100974.63
2023-06-26T01:25:16.432Z,100971.81
2023-06-26T01:27:45.478Z,100977.34
2023-06-26T01:30:13.097Z,100976.91
2023-06-26T01:32:41.241Z,100975.63
2023-06-26T01:35:09.456Z,100974.06
2023-06-26T01:37:36.040Z,100974.69
2023-06-26T01:40:02.608Z,100976.31
2023-06-26T01:42:29.223Z,100983.41
2023-06-26T01:44:57.484Z,100983.41
2023-06-26T01:47:27.148Z,100991.75
2023-06-26T01:50:00.165Z,100985.97
2023-06-26T01:52:29.916Z,100991.03
2023-06-26T01:55:03.620Z,100994.81
2023-06-26T01:57:32.066Z,100998.56
2023-06-26T02:00:00.769Z,100994.19
2023-06-26T02:02:29.888Z,101008.91
2023-06-26T02:04:56.595Z,101004.38
2023-06-26T02:07:23.287Z,101009.19
2023-06-26T02:09:49.936Z,101016.38
2023-06-26T02:12:16.521Z,101017.44
2023-06-26T02:14:43.023Z,101014.34
2023-06-26T02:17:10.953Z,101024.34
2023-06-26T02:19:37.530Z,101026.69
2023-06-26T02:22:04.370Z,101027.16
2023-06-26T02:24:30.871Z,101026.78
2023-06-26T02:26:57.519Z,101028.91
2023-06-26T02:29:24.047Z,101035.22
2023-06-26T02:31:50.602Z,101034.00
2023-06-26T02:34:18.488Z,101034.47
2023-06-26T02:36:45.042Z,101032.44
2023-06-26T02:39:11.614Z,101031.00
2023-06-26T02:41:38.244Z,101024.16
2023-06-26T02:44:04.930Z,101029.41
2023-06-26T02:46:31.517Z,101031.16
2023-06-26T02:48:58.045Z,101027.84
2023-06-26T02:51:25.961Z,101030.31
2023-06-26T02:53:52.498Z,101026.19
2023-06-26T02:56:19.013Z,101037.00
2023-06-26T02:58:45.623Z,101032.63
2023-06-26T03:01:12.169Z,101042.84
2023-06-26T03:03:38.713Z,101047.66
2023-06-26T03:06:05.235Z,101044.94
2023-06-26T03:08:33.117Z,101056.25
2023-06-26T03:10:59.670Z,101055.41
2023-06-26T03:13:26.225Z,101056.47
2023-06-26T03:15:52.777Z,101068.53
2023-06-26T03:18:19.318Z,101073.94
2023-06-26T03:20:45.873Z,101075.59
2023-06-26T03:23:12.464Z,101076.25
2023-06-26T03:25:40.333Z,101069.66
2023-06-26T03:28:06.866Z,101081.00
2023-06-26T03:30:33.463Z,101080.47
2023-06-26T03:33:00.056Z,101078.03
2023-06-26T03:35:26.631Z,101080.75
2023-06-26T03:37:53.211Z,101081.78
2023-06-26T03:40:21.112Z,101084.97
2023-06-26T03:42:50.160Z,101091.19
2023-06-26T03:45:16.884Z,101096.81
2023-06-26T03:47:43.423Z,101087.06
2023-06-26T03:50:10.620Z,101092.25
2023-06-26T03:52:37.167Z,101102.00
2023-06-26T03:55:04.128Z,101092.25
2023-06-26T03:57:30.745Z,101104.09
2023-06-26T03:59:58.621Z,101097.91
2023-06-26T04:02:25.222Z,101104.81
2023-06-26T04:04:51.825Z,101103.59
2023-06-26T04:07:18.538Z,101112.38
2023-06-26T04:09:45.339Z,101103.88
2023-06-26T04:12:11.887Z,101108.03
2023-06-26T04:14:38.736Z,101117.19
2023-06-26T04:17:06.682Z,101122.84
2023-06-26T04:19:34.486Z,101113.69
2023-06-26T04:22:01.640Z,101121.19
2023-06-26T04:24:28.232Z,101127.03
2023-06-26T04:26:54.789Z,101128.31
2023-06-26T04:29:21.340Z,101125.19
2023-06-26T04:31:48.009Z,101132.69
2023-06-26T04:34:15.980Z,101131.66
2023-06-26T04:36:42.511Z,101139.53
2023-06-26T04:39:09.032Z,101139.53
2023-06-26T04:41:35.572Z,101152.81
2023-06-26T04:44:02.115Z,101149.91
2023-06-26T04:46:28.708Z,101151.34
2023-06-26T04:48:55.285Z,101148.41
2023-06-26T04:51:23.140Z,101150.28
2023-06-26T04:53:49.653Z,101149.25
2023-06-26T04:56:16.202Z,101154.84
2023-06-26T04:58:42.726Z,101151.13
2023-06-26T05:01:09.366Z,101154.47
2023-06-26T05:03:36.043Z,101155.53
2023-06-26T05:06:07.491Z,101164.06
2023-06-26T05:08:37.130Z,101165.09
2023-06-26T05:11:03.731Z,101164.47
2023-06-26T05:13:30.272Z,101157.97
2023-06-26T05:15:56.866Z,101159.84
2023-06-26T05:18:23.442Z,101165.63
2023-06-26T05:20:50.564Z,101163.38
2023-06-26T05:23:17.870Z,101161.91
2023-06-26T05:25:46.389Z,101162.31
2023-06-26T05:28:13.648Z,101166.03
2023-06-26T05:30:41.194Z,101168.31
2023-06-26T05:33:11.580Z,101169.34
2023-06-26T05:35:38.261Z,101166.41
2023-06-26T05:38:05.756Z,101171.97
2023-06-26T05:40:32.711Z,101178.34
2023-06-26T05:43:01.250Z,101177.81
2023-06-26T05:45:27.766Z,101188.06
2023-06-26T05:47:54.404Z,101192.25
2023-06-26T05:50:21.562Z,101187.25
2023-06-26T05:52:48.682Z,101196.84
2023-06-26T05:55:15.957Z,101195.31
2023-06-26T05:57:43.170Z,101199.22
2023-06-26T06:00:12.336Z,101210.00
2023-06-26T06:02:39.151Z,101211.41
2023-06-26T06:05:06.735Z,101206.50
2023-06-26T06:07:33.419Z,101217.19
2023-06-26T06:10:00.261Z,101217.06
2023-06-26T06:12:26.908Z,101222.16
2023-06-26T06:14:54.182Z,101227.97
2023-06-26T06:17:22.217Z,101226.88
2023-06-26T06:19:48.806Z,101236.00
2023-06-26T06:22:15.533Z,101230.00
2023-06-26T06:24:42.159Z,101235.44
2023-06-26T06:27:08.747Z,101247.03
2023-06-26T06:29:35.315Z,101246.88
2023-06-26T06:32:01.894Z,101262.06
2023-06-26T06:34:29.744Z,101256.03
2023-06-26T06:36:56.285Z,101262.66
2023-06-26T06:39:22.845Z,101270.47
2023-06-26T06:41:49.436Z,101271.56
2023-06-26T06:44:16.019Z,101268.63
2023-06-26T06:46:42.554Z,101266.41
2023-06-26T06:49:09.243Z,101262.00
2023-06-26T06:51:37.126Z,101264.78
2023-06-26T06:54:03.906Z,101265.63
2023-06-26T06:56:30.456Z,101272.31
2023-06-26T06:58:57.033Z,101275.97
2023-06-26T07:01:23.637Z,101276.84
2023-06-26T07:03:50.299Z,101277.84
2023-06-26T07:06:16.947Z,101276.59
2023-06-26T07:08:44.860Z,101287.28
2023-06-26T07:11:11.499Z,101285.97
2023-06-26T07:13:38.027Z,101287.03
2023-06-26T07:16:05.112Z,101300.13
2023-06-26T07:18:31.758Z,101301.72
2023-06-26T07:20:58.351Z,101314.88
2023-06-26T07:23:24.956Z,101312.59
2023-06-26T07:25:52.879Z,101313.22
2023-06-26T07:28:19.422Z,101319.00
2023-06-26T07:30:45.999Z,101326.66
2023-06-26T07:33:12.549Z,101323.28
2023-06-26T07:35:39.248Z,101328.06
2023-06-26T07:38:05.822Z,101324.06
2023-06-26T07:40:32.410Z,101332.34
2023-06-26T07:43:00.533Z,101328.88
2023-06-26T07:45:27.410Z,101329.09
2023-06-26T07:47:54.488Z,101344.06
2023-06-26T07:50:21.167Z,101350.16
2023-06-26T07:52:47.775Z,101344.84
2023-06-26T07:55:14.337Z,101354.66
2023-06-26T07:57:40.948Z,101354.53
2023-06-26T08:00:10.264Z,101351.19
2023-06-26T08:02:36.815Z,101359.75
2023-06-26T08:05:03.583Z,101356.41
2023-06-26T08:07:30.285Z,101349.00
2023-06-26T08:09:56.892Z,101344.25
2023-06-26T08:12:23.398Z,101357.88
2023-06-26T08:14:49.953Z,101356.53
2023-06-26T08:17:17.895Z,101369.31
2023-06-26T08:19:44.423Z,101360.41
2023-06-26T08:22:11.023Z,101360.06
2023-06-26T08:24:37.551Z,101358.38
2023-06-26T08:27:04.507Z,101360.41
2023-06-26T08:29:31.030Z,101366.00
2023-06-26T08:31:57.584Z,101370.91
2023-06-26T08:34:25.895Z,101360.72
2023-06-26T08:36:52.442Z,101358.50
2023-06-26T08:39:18.978Z,101360.97
2023-06-26T08:41:45.662Z,101364.50
2023-06-26T08:44:12.233Z,101370.53
2023-06-26T08:46:38.835Z,101377.44
2023-06-26T08:49:15.075Z,101367.38
2023-06-26T08:51:46.558Z,101369.84
2023-06-26T08:54:17.450Z,101378.66
2023-06-26T08:56:47.096Z,101382.63
2023-06-26T08:59:14.320Z,101384.75
2023-06-26T09:01:41.622Z,101393.13
2023-06-26T09:06:34.858Z,101393.72
2023-06-26T09:09:03.362Z,101396.50
2023-06-26T09:11:29.865Z,101387.31
2023-06-26T09:13:56.614Z,101404.25
2023-06-26T09:16:25.486Z,101402.69
2023-06-26T09:18:53.295Z,101405.78
2023-06-26T09:21:19.993Z,101410.72
2023-06-26T09:23:46.991Z,101407.22
2023-06-26T09:26:15.869Z,101411.06
2023-06-26T09:28:43.347Z,101412.63
2023-06-26T09:31:10.136Z,101406.28
2023-06-26T09:33:38.321Z,101412.03
2023-06-26T09:36:06.758Z,101411.50
2023-06-26T09:38:34.507Z,101401.25
2023-06-26T09:41:01.098Z,101411.50
2023-06-26T09:43:29.073Z,101410.00
2023-06-26T09:45:55.717Z,101415.84
2023-06-26T09:48:22.646Z,101422.91
2023-06-26T09:51:05.563Z,101431.53
2023-06-26T09:53:36.696Z,101442.91
2023-06-26T09:56:06.670Z,101446.69
2023-06-26T09:58:36.968Z,101451.13
2023-06-26T10:01:03.582Z,101439.53
2023-06-26T10:03:30.449Z,101435.91
2023-06-26T10:05:57.701Z,101434.22
2023-06-26T10:08:24.712Z,101444.78
2023-06-26T10:10:52.797Z,101433.44
2023-06-26T10:13:25.961Z,101438.06
2023-06-26T10:15:55.060Z,101443.59
2023-06-26T10:18:24.061Z,101438.56
2023-06-26T10:20:54.682Z,101455.19
2023-06-26T10:23:24.311Z,101448.06
2023-06-26T10:25:56.436Z,101448.03
2023-06-26T10:28:24.565Z,101447.44
2023-06-26T10:30:53.625Z,101444.63
2023-06-26T10:33:22.571Z,101449.88
2023-06-26T10:35:49.228Z,101457.53
2023-06-26T10:38:15.714Z,101461.75
2023-06-26T10:40:43.288Z,101460.16
2023-06-26T10:43:11.145Z,101456.84
2023-06-26T10:45:43.472Z,101463.44
2023-06-26T10:48:10.035Z,101464.00
2023-06-26T10:50:38.436Z,101469.75
2023-06-26T10:53:09.796Z,101473.97
2023-06-26T10:55:36.637Z,101475.25
2023-06-26T10:58:03.312Z,101476.19
2023-06-26T11:00:29.898Z,101477.84
2023-06-26T11:02:56.567Z,101480.34
2023-06-26T11:05:27.326Z,101485.19
2023-06-26T11:08:08.841Z,101476.81
2023-06-26T11:10:52.973Z,101474.84
2023-06-26T11:13:21.848Z,101468.75
2023-06-26T11:15:50.604Z,101471.56
2023-06-26T11:18:17.819Z,101475.13
2023-06-26T11:20:44.408Z,101479.41
2023-06-26T11:23:13.023Z,101486.97
2023-06-26T11:25:39.782Z,101496.53
2023-06-26T11:28:06.907Z,101503.03
2023-06-26T11:30:33.631Z,101496.53
2023-06-26T11:33:04.439Z,101497.13
2023-06-26T11:35:30.986Z,101507.03
2023-06-26T11:37:57.776Z,101513.44
2023-06-26T11:40:26.280Z,101512.75
2023-06-26T11:42:53.552Z,101504.47
2023-06-26T11:45:20.993Z,101517.16
2023-06-26T11:47:47.787Z,101513.38
2023-06-26T11:50:16.755Z,101518.75
2023-06-26T11:52:43.317Z,101520.50
2023-06-26T11:55:10.322Z,101529.19
2023-06-26T11:57:38.525Z,101531.69
2023-06-26T12:00:15.001Z,101541.72
2023-06-26T12:02:41.694Z,101551.22
2023-06-26T12:05:09.024Z,101554.91
2023-06-26T12:07:35.943Z,101551.72
2023-06-26T12:10:03.088Z,101564.38
2023-06-26T12:12:29.992Z,101553.28
2023-06-26T12:14:58.607Z,101546.28
2023-06-26T12:17:25.408Z,101552.78
2023-06-26T12:19:52.049Z,101560.97
2023-06-26T12:22:19.621Z,101555.28
2023-06-26T12:24:47.658Z,101553.56
2023-06-26T12:27:16.640Z,101546.56
2023-06-26T12:29:52.149Z,101548.13
2023-06-26T12:32:20.460Z,101554.13
2023-06-26T12:34:50.335Z,101552.81
2023-06-26T12:37:17.323Z,101554.72
2023-06-26T12:39:49.635Z,101559.47
2023-06-26T12:42:17.409Z,101561.34
2023-06-26T12:44:44.392Z,101559.91
2023-06-26T12:47:11.004Z,101560.38
2023-06-26T12:49:41.378Z,101564.31
2023-06-26T12:52:09.659Z,101563.38
2023-06-26T12:54:37.347Z,101571.25
2023-06-26T12:57:04.392Z,101561.31
2023-06-26T12:59:31.372Z,101561.13
2023-06-26T13:01:58.020Z,101558.28
2023-06-26T13:04:24.897Z,101558.13
2023-06-26T13:06:53.739Z,101563.66
2023-06-26T13:09:20.341Z,101561.25
2023-06-26T13:11:46.901Z,101554.88
2023-06-26T13:14:13.435Z,101560.25
2023-06-26T13:16:41.829Z,101568.81
2023-06-26T13:19:09.045Z,101569.03
2023-06-26T13:21:36.223Z,101551.38
2023-06-26T13:24:04.859Z,101561.91
2023-06-26T13:29:01.331Z,101556.59
2023-06-26T13:31:28.095Z,101568.28
2023-06-26T13:33:54.807Z,101577.75
2023-06-26T13:36:21.755Z,101581.28
2023-06-26T13:38:48.388Z,101593.16
2023-06-26T13:41:16.329Z,101572.50
2023-06-26T13:43:42.882Z,101575.00
2023-06-26T13:46:09.939Z,101579.66
2023-06-26T13:48:36.448Z,101584.06
2023-06-26T13:51:03.005Z,101575.06
2023-06-26T13:53:29.570Z,101572.56
2023-06-26T13:55:56.096Z,101572.69
2023-06-26T13:58:23.991Z,101569.63
2023-06-26T14:00:51.306Z,101572.56
2023-06-26T14:03:19.809Z,101578.00
2023-06-26T14:05:46.652Z,101576.56
2023-06-26T14:08:14.165Z,101582.16
2023-06-26T14:10:41.099Z,101581.03
2023-06-26T14:13:07.853Z,101583.53
2023-06-26T14:15:35.843Z,101591.69
2023-06-26T14:18:02.611Z,101590.66
2023-06-26T14:20:29.289Z,101595.34
2023-06-26T14:22:55.864Z,101602.41
2023-06-26T14:25:22.564Z,101601.41
2023-06-26T14:27:49.170Z,101599.59
2023-06-26T14:30:15.762Z,101600.00
2023-06-26T14:32:43.701Z,101599.47
2023-06-26T14:35:10.239Z,101591.00
2023-06-26T14:37:37.494Z,101598.63
2023-06-26T14:40:04.695Z,101600.47
2023-06-26T14:42:31.675Z,101604.88
2023-06-26T14:44:58.726Z,101604.16
2023-06-26T14:47:25.966Z,101607.91
2023-06-26T14:49:53.857Z,101604.66
2023-06-26T14:52:20.399Z,101602.31
2023-06-26T14:54:46.929Z,101602.09
2023-06-26T14:57:13.525Z,101606.09
2023-06-26T14:59:40.053Z,101600.13
2023-06-26T15:02:07.226Z,101605.41
2023-06-26T15:04:33.833Z,101607.75
2023-06-26T15:07:01.790Z,101598.56
2023-06-26T15:09:28.398Z,101609.50
2023-06-26T15:11:54.930Z,101598.34
2023-06-26T15:14:21.489Z,101598.63
2023-06-26T15:16:48.082Z,101609.31
2023-06-26T15:19:14.815Z,101609.09
2023-06-26T15:21:43.266Z,101604.50
2023-06-26T15:24:11.340Z,101610.50
2023-06-26T15:26:37.925Z,101607.19
2023-06-26T15:29:04.485Z,101606.81
2023-06-26T15:31:31.088Z,101624.28
2023-06-26T15:33:57.735Z,101598.28
2023-06-26T15:36:24.357Z,101605.47
2023-06-26T15:38:50.899Z,101606.94
2023-06-26T15:41:18.749Z,101611.84
2023-06-26T15:43:45.276Z,101610.41
2023-06-26T15:46:11.856Z,101610.41
2023-06-26T15:48:41.489Z,101625.47
2023-06-26T15:51:08.486Z,101622.34
2023-06-26T15:53:36.911Z,101615.28
2023-06-26T15:56:04.339Z,101613.84
2023-06-26T15:58:32.301Z,101619.38
2023-06-26T16:00:58.888Z,101621.97
2023-06-26T16:03:25.493Z,101621.88
2023-06-26T16:05:52.087Z,101622.47
2023-06-26T16:08:18.715Z,101617.28
2023-06-26T16:10:45.271Z,101612.53
2023-06-26T16:13:12.034Z,101623.28
2023-06-26T16:15:40.155Z,101615.84
2023-06-26T16:18:06.953Z,101612.88
2023-06-26T16:20:33.578Z,101619.38
2023-06-26T16:23:00.172Z,101614.63
2023-06-26T16:25:26.728Z,101619.84
2023-06-26T16:27:53.261Z,101618.81
2023-06-26T16:30:19.794Z,101620.47
2023-06-26T16:32:47.790Z,101629.28
2023-06-26T16:35:14.358Z,101625.19
2023-06-26T16:37:40.957Z,101622.84
2023-06-26T16:40:08.763Z,101621.44
2023-06-26T16:42:35.318Z,101619.16
2023-06-26T16:45:01.936Z,101620.59
2023-06-26T16:47:29.557Z,101621.69
2023-06-26T16:49:57.971Z,101612.78
2023-06-26T16:52:24.522Z,101625.25
2023-06-26T16:54:51.029Z,101616.06
2023-06-26T16:57:17.596Z,101611.50
2023-06-26T16:59:44.162Z,101617.31
2023-06-26T17:02:10.757Z,101626.75
2023-06-26T17:04:37.372Z,101627.19
2023-06-26T17:07:06.162Z,101619.84
2023-06-26T17:09:32.703Z,101617.00
2023-06-26T17:11:59.229Z,101633.56
2023-06-26T17:14:25.767Z,101626.03
2023-06-26T17:16:52.394Z,101627.59
2023-06-26T17:19:18.959Z,101628.88
2023-06-26T17:21:45.480Z,101632.38
2023-06-26T17:24:13.393Z,101626.09
2023-06-26T17:26:42.120Z,101628.31
2023-06-26T17:29:08.667Z,101624.13
2023-06-26T17:31:35.245Z,101619.41
2023-06-26T17:34:01.866Z,101624.50
2023-06-26T17:36:28.421Z,101621.47
2023-06-26T17:38:54.980Z,101619.41
2023-06-26T17:41:22.888Z,101622.53
2023-06-26T17:43:49.480Z,101628.38
2023-06-26T17:46:16.025Z,101631.59
2023-06-26T17:48:43.326Z,101641.91
2023-06-26T17:51:09.861Z,101640.72
2023-06-26T17:53:36.846Z,101641.47
2023-06-26T17:56:03.503Z,101634.84
2023-06-26T17:58:31.443Z,101640.97
2023-06-26T18:00:58.036Z,101644.91
2023-06-26T18:03:24.630Z,101647.19
2023-06-26T18:05:51.264Z,101644.25
2023-06-26T18:08:17.803Z,101645.72
2023-06-26T18:10:44.349Z,101650.50
2023-06-26T18:13:10.918Z,101649.44
2023-06-26T18:15:38.812Z,101660.91
2023-06-26T18:18:05.464Z,101666.09
2023-06-26T18:20:32.116Z,101661.38
2023-06-26T18:22:58.804Z,101654.91
2023-06-26T18:25:25.354Z,101665.09
2023-06-26T18:27:51.976Z,101675.72
2023-06-26T18:30:18.594Z,101670.72
2023-06-26T18:32:47.357Z,101671.13
2023-06-26T18:35:14.110Z,101667.81
2023-06-26T18:37:40.662Z,101673.63
2023-06-26T18:40:08.404Z,101667.56
2023-06-26T18:42:34.970Z,101674.25
2023-06-26T18:45:01.504Z,101677.50
2023-06-26T18:47:28.077Z,101673.47
2023-06-26T18:49:56.002Z,101672.28
2023-06-26T18:52:22.532Z,101672.31
2023-06-26T18:54:49.054Z,101678.84
2023-06-26T18:57:15.675Z,101676.31
2023-06-26T18:59:42.203Z,101670.63
2023-06-26T19:02:08.778Z,101677.38
2023-06-26T19:04:35.330Z,101688.53
2023-06-26T19:07:03.656Z,101683.91
2023-06-26T19:09:30.264Z,101680.91
2023-06-26T19:11:56.809Z,101686.28
2023-06-26T19:14:23.412Z,101688.19
2023-06-26T19:16:49.949Z,101688.88
2023-06-26T19:19:16.521Z,101702.00
2023-06-26T19:21:43.044Z,101698.84
2023-06-26T19:24:10.911Z,101697.69
2023-06-26T19:26:37.457Z,101690.91
2023-06-26T19:29:04.010Z,101690.28
2023-06-26T19:31:30.632Z,101704.00
2023-06-26T19:33:57.305Z,101697.13
2023-06-26T19:36:23.819Z,101701.72
2023-06-26T19:38:50.494Z,101693.22
2023-06-26T19:41:18.398Z,101704.44
2023-06-26T19:43:44.913Z,101701.31
2023-06-26T19:46:11.503Z,101702.75
2023-06-26T19:48:38.100Z,101706.22
2023-06-26T19:51:04.652Z,101708.44
2023-06-26T19:53:31.216Z,101708.00
2023-06-26T19:55:57.716Z,101706.25
2023-06-26T19:58:25.744Z,101714.75
2023-06-26T20:00:52.278Z,101710.94
2023-06-26T20:03:18.877Z,101713.16
2023-06-26T20:05:45.490Z,101717.06
2023-06-26T20:08:12.053Z,101725.31
2023-06-26T20:10:38.592Z,101720.13
2023-06-26T20:13:05.166Z,101717.19
2023-06-26T20:15:33.099Z,101726.66
2023-06-26T20:17:59.674Z,101732.59
2023-06-26T20:20:26.404Z,101734.09
2023-06-26T20:22:53.003Z,101734.63
2023-06-26T20:25:19.640Z,101735.03
2023-06-26T20:27:46.176Z,101742.84
2023-06-26T20:30:13.041Z,101751.53
2023-06-26T20:32:41.094Z,101747.34
2023-06-26T20:35:08.519Z,101750.75
2023-06-26T20:37:35.097Z,101745.59
2023-06-26T20:40:02.122Z,101747.38
2023-06-26T20:42:29.339Z,101744.22
2023-06-26T20:44:56.447Z,101753.53
2023-06-26T20:47:23.544Z,101756.59
2023-06-26T20:49:52.060Z,101752.78
2023-06-26T20:52:19.181Z,101753.84
2023-06-26T20:54:46.217Z,101755.25
2023-06-26T20:57:12.732Z,101755.59
2023-06-26T20:59:39.428Z,101759.06
2023-06-26T21:02:06.936Z,101755.72
2023-06-26T21:04:35.817Z,101753.03
2023-06-26T21:07:07.079Z,101765.84
2023-06-26T21:09:33.863Z,101758.34
2023-06-26T21:12:00.451Z,101758.72
2023-06-26T21:14:26.983Z,101767.19
2023-06-26T21:16:53.524Z,101766.53
2023-06-26T21:19:20.023Z,101763.38
2023-06-26T21:21:46.531Z,101755.03
2023-06-26T21:24:14.459Z,101768.22
2023-06-26T21:26:41.681Z,101772.00
2023-06-26T21:29:08.253Z,101766.56
2023-06-26T21:31:34.995Z,101771.84
2023-06-26T21:34:01.595Z,101776.06
2023-06-26T21:36:28.156Z,101770.78
2023-06-26T21:38:54.727Z,101774.69
2023-06-26T21:41:22.825Z,101780.41
2023-06-26T21:43:49.389Z,101773.28
2023-06-26T21:46:15.955Z,101769.84
2023-06-26T21:48:42.553Z,101756.75
2023-06-26T21:51:09.113Z,101767.50
2023-06-26T21:53:35.641Z,101766.84
2023-06-26T21:56:02.203Z,101763.72
2023-06-26T21:58:30.065Z,101775.66
2023-06-26T22:00:56.601Z,101776.38
2023-06-26T22:03:23.170Z,101766.38
2023-06-26T22:05:49.872Z,101779.50
2023-06-26T22:08:16.519Z,101769.84
2023-06-26T22:10:43.059Z,101764.38
2023-06-26T22:13:09.684Z,101763.03
2023-06-26T22:15:37.719Z,101766.09
2023-06-26T22:18:04.436Z,101766.28
2023-06-26T22:20:31.139Z,101768.13
2023-06-26T22:22:57.818Z,101762.28
2023-06-26T22:25:25.075Z,101771.00
2023-06-26T22:27:53.244Z,101770.91
2023-06-26T22:30:21.692Z,101764.75
2023-06-26T22:32:49.728Z,101760.75
2023-06-26T22:35:17.281Z,101762.31
2023-06-26T22:37:44.449Z,101754.59
2023-06-26T22:40:13.468Z,101751.25
2023-06-26T22:42:41.329Z,101757.63
2023-06-26T22:45:10.512Z,101763.16
2023-06-26T22:47:37.947Z,101764.56
2023-06-26T22:50:07.255Z,101764.91
2023-06-26T22:52:33.839Z,101759.41
2023-06-26T22:55:00.699Z,101758.91
2023-06-26T22:57:28.028Z,101759.94
2023-06-26T22:59:54.618Z,101753.44
2023-06-26T23:02:21.202Z,101761.16
2023-06-26T23:04:48.773Z,101761.31
2023-06-26T23:07:16.753Z,101766.03
2023-06-26T23:09:43.830Z,101761.50
2023-06-26T23:12:10.556Z,101763.34
2023-06-26T23:14:37.116Z,101758.16
2023-06-26T23:17:03.920Z,101760.19
2023-06-26T23:19:30.811Z,101766.75
2023-06-26T23:21:57.444Z,101761.72
2023-06-26T23:24:26.067Z,101754.19
2023-06-26T23:26:52.655Z,101766.13
2023-06-26T23:29:19.228Z,101760.91
2023-06-26T23:31:45.882Z,101764.59
2023-06-26T23:34:12.389Z,101764.78
2023-06-26T23:36:39.106Z,101762.09
2023-06-26T23:39:05.719Z,101759.41
2023-06-26T23:41:33.568Z,101758.75
2023-06-26T23:44:00.109Z,101760.78
2023-06-26T23:46:26.681Z,101755.75
2023-06-26T23:48:53.246Z,101764.09
2023-06-26T23:51:19.770Z,101757.41
2023-06-26T23:53:46.313Z,101754.41
2023-06-26T23:56:13.154Z,101754.41
2023-06-26T23:58:41.019Z,101746.53
